Time;durP1;ratioP1;P1;durP2;ratioP2;P2;SDS_P1;SDS_P2;PMS_P1;PMS_P2;Temp;Humidity;BMP_temperature;BMP_pressure;BME280_temperature;BME280_humidity;BME280_pressure;Samples;Min_cycle;Max_cycle;Signal;HPM_P1;HPM_P2
2022/11/27 00:01:29;;;;;;;9.48;3.83;;;;;;;5.02;99.70;102436.63;4990144;28;20450;-73
2022/11/27 00:03:55;;;;;;;9.93;3.95;;;;;;;4.98;100.00;102421.44;4988718;28;20048;-73
2022/11/27 00:06:23;;;;;;;14.48;4.05;;;;;;;4.99;99.91;102434.91;4990925;28;20034;-73
2022/11/27 00:08:49;;;;;;;14.10;4.03;;;;;;;4.98;99.90;102438.50;4991208;28;20045;-73
2022/11/27 00:11:18;;;;;;;13.32;4.38;;;;;;;4.95;100.00;102425.13;4991275;28;20026;-72
2022/11/27 00:13:44;;;;;;;11.38;3.75;;;;;;;4.95;99.73;102427.81;4989780;28;20450;-73
2022/11/27 00:16:10;;;;;;;11.32;4.35;;;;;;;4.92;100.00;102427.88;4990941;28;20517;-73
2022/11/27 00:18:36;;;;;;;11.35;4.30;;;;;;;4.86;100.00;102418.13;4990882;28;20048;-73
2022/11/27 00:21:07;;;;;;;13.10;4.93;;;;;;;4.85;99.93;102420.88;4989721;28;20034;-73
2022/11/27 00:23:35;;;;;;;14.40;4.85;;;;;;;4.83;100.00;102420.00;4973876;28;20042;-73
2022/11/27 00:26:00;;;;;;;10.20;4.22;;;;;;;4.78;100.00;102406.63;4991214;28;20026;-73
2022/11/27 00:28:26;;;;;;;13.32;4.30;;;;;;;4.74;100.00;102399.53;4989651;28;20057;-73
2022/11/27 00:30:51;;;;;;;11.98;4.15;;;;;;;4.71;100.00;102393.31;4989845;28;20442;-74
2022/11/27 00:33:16;;;;;;;20.33;4.55;;;;;;;4.68;100.00;102402.38;4991104;28;20473;-73
2022/11/27 00:35:42;;;;;;;8.50;4.07;;;;;;;4.66;100.00;102395.22;4990619;28;20564;-73
2022/11/27 00:38:08;;;;;;;15.25;4.45;;;;;;;4.65;100.00;102396.16;4990303;28;20047;-73
2022/11/27 00:40:34;;;;;;;10.18;3.90;;;;;;;4.62;100.00;102391.75;4990838;28;20053;-74
2022/11/27 00:43:00;;;;;;;15.27;4.45;;;;;;;4.59;100.00;102389.09;4990078;28;20500;-73
2022/11/27 00:45:26;;;;;;;13.82;4.43;;;;;;;4.55;100.00;102396.38;4989965;28;20505;-73
2022/11/27 00:47:52;;;;;;;11.95;4.07;;;;;;;4.55;100.00;102385.59;4978678;28;20034;-74
2022/11/27 00:50:17;;;;;;;13.43;4.20;;;;;;;4.53;100.00;102391.94;4988018;28;20105;-73
2022/11/27 00:52:42;;;;;;;17.33;3.65;;;;;;;4.52;100.00;102385.69;4987715;28;20050;-73
2022/11/27 00:55:08;;;;;;;11.20;4.60;;;;;;;4.51;100.00;102380.31;4985929;28;20129;-73
2022/11/27 00:57:33;;;;;;;14.10;4.35;;;;;;;4.49;100.00;102385.75;4970493;28;20034;-73
2022/11/27 00:59:59;;;;;;;11.63;3.80;;;;;;;4.47;100.00;102375.91;4986852;28;20537;-73
2022/11/27 01:02:24;;;;;;;17.75;4.97;;;;;;;4.45;100.00;102366.97;4986835;28;20072;-73
2022/11/27 01:04:49;;;;;;;11.82;3.90;;;;;;;4.45;100.00;102365.16;4987586;28;20132;-73
2022/11/27 01:07:15;;;;;;;17.30;4.25;;;;;;;4.45;100.00;102361.59;4987740;28;20038;-74
2022/11/27 01:09:41;;;;;;;13.27;4.70;;;;;;;4.45;100.00;102361.59;4986060;28;20094;-73
2022/11/27 01:12:06;;;;;;;12.15;4.18;;;;;;;4.45;100.00;102358.91;4987693;28;20104;-74
2022/11/27 01:14:32;;;;;;;21.38;4.22;;;;;;;4.45;100.00;102356.19;4987091;28;20030;-73
2022/11/27 01:16:58;;;;;;;16.20;4.55;;;;;;;4.44;100.00;102347.22;4988241;28;20122;-73
2022/11/27 01:19:23;;;;;;;12.38;4.40;;;;;;;4.43;100.00;102336.47;4986949;28;20038;-73
2022/11/27 01:21:48;;;;;;;19.10;4.40;;;;;;;4.42;100.00;102348.16;4986114;28;20129;-73
2022/11/27 01:24:15;;;;;;;13.88;4.05;;;;;;;4.40;100.00;102342.84;4985147;28;20034;-74
2022/11/27 01:26:41;;;;;;;16.92;4.43;;;;;;;4.40;100.00;102350.03;4985523;28;20049;-74
2022/11/27 01:29:07;;;;;;;14.23;4.05;;;;;;;4.41;100.00;102351.78;4986263;28;20034;-74
2022/11/27 01:31:33;;;;;;;21.00;4.88;;;;;;;4.38;100.00;102352.72;4987331;28;20030;-73
2022/11/27 01:34:06;;;;;;;17.35;4.57;;;;;;;4.37;100.00;102350.97;4991807;28;20485;-73
2022/11/27 01:36:34;;;;;;;14.70;4.30;;;;;;;4.37;100.00;102344.69;4988507;28;20137;-73
2022/11/27 01:39:00;;;;;;;16.80;5.70;;;;;;;4.38;100.00;102341.06;4994892;28;20130;-73
2022/11/27 01:41:34;;;;;;;16.58;5.03;;;;;;;4.39;100.00;102321.31;4986007;28;20096;-73
2022/11/27 01:44:20;;;;;;;16.35;4.80;;;;;;;4.37;100.00;102318.63;4987451;28;20053;-73
2022/11/27 01:46:48;;;;;;;15.05;5.13;;;;;;;4.37;100.00;102320.44;4999975;28;20038;-73
2022/11/27 01:49:37;;;;;;;18.25;6.28;;;;;;;4.38;100.00;102314.13;5000277;28;20033;-73
2022/11/27 01:52:08;;;;;;;15.95;5.53;;;;;;;4.39;100.00;102326.72;4985953;28;20042;-73
2022/11/27 01:54:40;;;;;;;13.35;5.50;;;;;;;4.42;100.00;102316.72;4986320;28;20524;-73
2022/11/27 01:57:17;;;;;;;20.08;5.70;;;;;;;4.42;100.00;102295.16;4988319;28;20045;-73
2022/11/27 01:59:43;;;;;;;13.77;5.78;;;;;;;4.40;100.00;102294.34;4986725;28;20042;-73
2022/11/27 02:02:08;;;;;;;15.98;5.80;;;;;;;4.40;100.00;102279.97;5001129;28;20470;-73
2022/11/27 02:04:33;;;;;;;18.67;5.50;;;;;;;4.41;100.00;102279.03;4996906;28;20124;-73
2022/11/27 02:06:59;;;;;;;17.55;5.03;;;;;;;4.40;100.00;102277.28;4987207;28;20054;-73
2022/11/27 02:09:26;;;;;;;15.43;5.47;;;;;;;4.38;100.00;102276.41;4984665;28;20129;-72
2022/11/27 02:12:09;;;;;;;19.70;5.47;;;;;;;4.35;100.00;102272.00;4986304;28;20060;-73
2022/11/27 02:14:35;;;;;;;;;;;;;;;4.32;100.00;102272.06;4995978;28;20089;-73
2022/11/27 02:17:16;;;;;;;18.85;5.85;;;;;;;4.27;100.00;102257.81;4993124;28;19929;-74
2022/11/27 02:20:03;;;;;;;17.08;5.78;;;;;;;4.22;100.00;102255.22;4986117;28;20425;-73
2022/11/27 02:22:34;;;;;;;14.93;5.47;;;;;;;4.19;100.00;102263.38;4986638;28;20509;-73
2022/11/27 02:25:11;;;;;;;20.60;5.80;;;;;;;4.15;100.00;102250.94;4985381;28;20088;-73
2022/11/27 02:28:03;;;;;;;19.98;6.88;;;;;;;4.13;100.00;102243.78;4985434;28;20045;-74
2022/11/27 02:30:34;;;;;;;19.67;5.70;;;;;;;4.10;100.00;102236.66;4986073;28;20034;-73
2022/11/27 02:33:03;;;;;;;14.77;6.00;;;;;;;4.09;100.00;102245.66;5006702;28;20037;-73
2022/11/27 02:35:41;;;;;;;18.25;6.35;;;;;;;4.06;100.00;102240.38;4990962;28;20089;-73
2022/11/27 02:38:15;;;;;;;13.93;5.40;;;;;;;4.04;100.00;102244.88;4986693;28;20042;-73
2022/11/27 02:40:49;;;;;;;15.38;5.30;;;;;;;4.01;100.00;102236.88;4968719;28;20129;-73
2022/11/27 02:43:29;;;;;;;19.40;6.07;;;;;;;3.99;100.00;102228.84;4986614;28;20490;-74
2022/11/27 02:45:58;;;;;;;15.35;5.65;;;;;;;4.00;100.00;102232.41;4986229;28;20037;-73
2022/11/27 02:48:35;;;;;;;15.45;5.50;;;;;;;3.97;100.00;102227.13;4985066;28;20027;-73
2022/11/27 02:51:03;;;;;;;12.38;5.68;;;;;;;3.95;100.00;102234.31;4984546;28;20050;-73
2022/11/27 02:53:36;;;;;;;18.90;5.82;;;;;;;3.97;100.00;102237.88;4986044;28;20057;-73
2022/11/27 02:56:06;;;;;;;14.48;5.93;;;;;;;3.97;100.00;102240.56;4984831;28;20073;-73
2022/11/27 02:58:35;;;;;;;15.98;4.95;;;;;;;3.98;100.00;102236.97;4995247;28;20096;-73
2022/11/27 03:01:04;;;;;;;15.60;5.60;;;;;;;4.00;100.00;102238.69;5005488;28;20557;-74
2022/11/27 03:03:35;;;;;;;10.73;4.70;;;;;;;4.03;100.00;102245.81;5008944;28;20511;-73
2022/11/27 03:06:09;;;;;;;15.93;5.28;;;;;;;4.01;100.00;102237.78;5004275;28;20112;-75
2022/11/27 03:08:44;;;;;;;14.70;6.00;;;;;;;4.05;100.00;102252.91;4994048;28;20544;-73
2022/11/27 03:11:12;;;;;;;13.18;5.70;;;;;;;4.04;100.00;102245.78;5004892;28;20038;-73
2022/11/27 03:13:45;;;;;;;13.30;5.20;;;;;;;4.08;100.00;102242.09;5005228;28;20058;-73
2022/11/27 03:16:33;;;;;;;11.23;4.50;;;;;;;4.13;100.00;102230.31;4998870;28;20450;-74
2022/11/27 03:19:25;;;;;;;15.25;4.43;;;;;;;4.20;100.00;102229.28;5006857;28;20055;-73
2022/11/27 03:21:59;;;;;;;8.57;3.90;;;;;;;4.24;99.53;102222.88;4989949;28;20050;-73
2022/11/27 03:24:26;;;;;;;13.45;4.72;;;;;;;4.25;99.46;102221.97;4988348;28;20041;-73
2022/11/27 03:26:52;;;;;;;12.55;4.40;;;;;;;4.28;99.38;102222.75;4989395;28;20405;-73
2022/11/27 03:29:44;;;;;;;12.15;4.85;;;;;;;4.30;99.25;102218.22;4989798;28;20039;-73
2022/11/27 03:32:09;;;;;;;12.60;4.75;;;;;;;4.32;98.91;102216.38;4987768;28;20046;-73
2022/11/27 03:34:35;;;;;;;15.30;5.00;;;;;;;4.33;98.77;102218.13;4971834;28;20041;-73
2022/11/27 03:37:01;;;;;;;24.73;6.57;;;;;;;4.37;98.07;102218.94;4988254;28;20041;-75
2022/11/27 03:39:28;;;;;;;13.23;5.50;;;;;;;4.38;98.04;102214.44;4988001;28;20387;-73
2022/11/27 03:42:06;;;;;;;8.13;3.92;;;;;;;4.43;97.61;102213.44;4988947;28;20176;-73
2022/11/27 03:44:35;;;;;;;16.63;5.30;;;;;;;4.43;98.05;102199.97;4989567;28;20485;-73
2022/11/27 03:47:11;;;;;;;11.23;3.90;;;;;;;4.40;97.51;102181.16;5002969;28;20034;-75
2022/11/27 03:50:07;;;;;;;20.05;4.93;;;;;;;4.43;97.60;102190.97;4991962;28;20102;-73
2022/11/27 03:52:48;;;;;;;9.45;3.85;;;;;;;4.43;97.14;102188.28;5003938;28;20293;-73
2022/11/27 03:55:21;;;;;;;12.57;4.45;;;;;;;4.43;97.34;102193.66;4987325;28;20056;-73
2022/11/27 03:58:10;;;;;;;16.65;4.53;;;;;;;4.43;97.56;102191.88;4988302;28;20121;-73
2022/11/27 04:00:41;;;;;;;10.48;4.90;;;;;;;4.42;97.40;102191.91;4988496;28;20109;-74
2022/11/27 04:03:11;;;;;;;9.48;4.20;;;;;;;4.44;96.64;102187.38;4987949;28;20046;-73
2022/11/27 04:05:37;;;;;;;8.50;3.88;;;;;;;4.47;96.67;102189.97;4989308;28;20506;-73
2022/11/27 04:08:03;;;;;;;9.00;3.70;;;;;;;4.49;96.46;102196.22;4987137;28;20041;-73
2022/11/27 04:10:28;;;;;;;13.63;5.25;;;;;;;4.50;96.37;102200.69;4987362;28;20130;-73
2022/11/27 04:12:54;;;;;;;9.57;3.92;;;;;;;4.53;96.36;102206.88;4986551;28;20051;-73
2022/11/27 04:15:19;;;;;;;7.50;3.60;;;;;;;4.56;95.60;102205.91;4989028;28;20504;-73
2022/11/27 04:17:44;;;;;;;8.18;3.38;;;;;;;4.56;95.98;102216.69;4988592;28;20101;-73
2022/11/27 04:20:13;;;;;;;9.18;3.35;;;;;;;4.56;95.36;102206.78;4987523;28;20042;-73
2022/11/27 04:22:38;;;;;;;11.95;3.53;;;;;;;4.57;95.51;102215.78;4987868;28;20054;-73
2022/11/27 04:25:04;;;;;;;7.10;3.40;;;;;;;4.58;95.46;102217.56;4987903;28;20544;-73
2022/11/27 04:27:30;;;;;;;7.55;3.75;;;;;;;4.59;95.68;102213.91;4989557;28;20035;-73
2022/11/27 04:29:55;;;;;;;10.45;3.90;;;;;;;4.58;96.10;102209.47;4988408;28;20121;-73
2022/11/27 04:32:20;;;;;;;9.10;3.50;;;;;;;4.58;95.81;102202.25;4997136;28;20465;-73
2022/11/27 04:34:46;;;;;;;13.90;3.70;;;;;;;4.60;95.54;102210.28;4995649;28;20493;-73
2022/11/27 04:37:11;;;;;;;8.13;3.17;;;;;;;4.58;95.22;102201.38;5006623;28;20485;-74
2022/11/27 04:39:36;;;;;;;9.98;3.63;;;;;;;4.59;95.55;102200.44;4987052;28;20039;-73
2022/11/27 04:42:02;;;;;;;11.18;3.50;;;;;;;4.58;95.43;102199.56;4987954;28;20034;-73
2022/11/27 04:44:27;;;;;;;7.03;3.40;;;;;;;4.59;95.76;102205.84;4988951;28;20034;-73
2022/11/27 04:46:52;;;;;;;5.88;3.15;;;;;;;4.58;95.03;102207.66;4995388;28;20125;-73
2022/11/27 04:49:18;;;;;;;10.57;3.65;;;;;;;4.61;94.61;102203.97;4984768;28;20046;-73
2022/11/27 04:51:44;;;;;;;9.13;3.88;;;;;;;4.60;95.50;102189.63;4986744;28;20034;-73
2022/11/27 04:54:10;;;;;;;10.45;3.10;;;;;;;4.57;95.46;102176.25;4987075;28;20093;-73
2022/11/27 04:56:35;;;;;;;12.40;3.67;;;;;;;4.55;95.01;102175.38;4987975;28;20490;-73
2022/11/27 04:59:00;;;;;;;7.82;3.28;;;;;;;4.55;95.51;102178.06;4987642;28;20089;-74
2022/11/27 05:01:26;;;;;;;5.82;3.15;;;;;;;4.54;95.84;102164.66;4988467;28;20026;-73
2022/11/27 05:03:51;;;;;;;10.93;3.65;;;;;;;4.51;95.79;102164.72;4987905;28;20049;-73
2022/11/27 05:06:16;;;;;;;8.98;3.70;;;;;;;4.50;95.80;102171.91;4986285;28;20042;-73
2022/11/27 05:08:42;;;;;;;12.60;3.50;;;;;;;4.51;95.69;102156.63;4987026;28;20112;-73
2022/11/27 05:11:12;;;;;;;9.23;3.28;;;;;;;4.50;95.74;102157.56;4986119;28;20064;-74
2022/11/27 05:13:38;;;;;;;10.23;3.58;;;;;;;4.50;95.54;102155.75;4986264;28;20136;-74
2022/11/27 05:16:04;;;;;;;10.10;3.95;;;;;;;4.52;95.87;102153.91;4986752;28;20206;-73
2022/11/27 05:18:29;;;;;;;8.38;3.42;;;;;;;4.52;95.60;102147.63;4988130;28;20526;-73
2022/11/27 05:21:06;;;;;;;11.93;3.90;;;;;;;4.55;95.97;102153.81;4986213;28;20054;-73
2022/11/27 05:23:33;;;;;;;8.10;3.95;;;;;;;4.56;95.05;102141.22;4974555;28;20401;-73
2022/11/27 05:25:59;;;;;;;8.57;3.65;;;;;;;4.56;95.63;102142.09;4986488;28;20042;-73
2022/11/27 05:28:24;;;;;;;14.13;3.30;;;;;;;4.59;96.05;102150.13;4987599;28;20111;-73
2022/11/27 05:30:50;;;;;;;8.57;3.65;;;;;;;4.59;95.05;102138.47;4976014;28;20038;-73
2022/11/27 05:33:17;;;;;;;7.93;3.28;;;;;;;4.59;95.65;102133.06;4987208;28;20030;-73
2022/11/27 05:35:42;;;;;;;8.40;4.38;;;;;;;4.60;95.44;102134.84;4977954;28;20034;-73
2022/11/27 05:38:08;;;;;;;10.50;3.55;;;;;;;4.61;95.28;102134.78;4985433;28;20097;-73
2022/11/27 05:40:33;;;;;;;11.13;3.72;;;;;;;4.64;95.48;102133.81;4985423;28;20065;-73
2022/11/27 05:42:59;;;;;;;10.63;3.28;;;;;;;4.64;95.05;102125.75;5001421;28;20042;-73
2022/11/27 05:45:25;;;;;;;8.68;3.22;;;;;;;4.68;94.76;102126.56;4969600;28;20413;-73
2022/11/27 05:47:50;;;;;;;9.02;3.65;;;;;;;4.68;95.13;102123.84;5000966;28;20066;-73
2022/11/27 05:50:15;;;;;;;6.32;2.88;;;;;;;4.66;95.17;102123.00;4986793;28;20548;-73
2022/11/27 05:52:41;;;;;;;9.65;3.40;;;;;;;4.67;94.58;102117.59;4986724;28;20085;-72
2022/11/27 05:55:07;;;;;;;6.45;3.50;;;;;;;4.68;95.15;102110.38;5001202;28;20342;-73
2022/11/27 05:57:32;;;;;;;11.27;3.60;;;;;;;4.71;94.89;102104.88;4987177;28;20100;-73
2022/11/27 05:59:58;;;;;;;10.88;3.03;;;;;;;4.71;94.71;102107.56;4997457;28;20085;-73
2022/11/27 06:02:24;;;;;;;12.57;3.22;;;;;;;4.71;94.94;102099.50;4982590;28;20501;-73
2022/11/27 06:04:49;;;;;;;8.73;2.75;;;;;;;4.71;94.52;102092.31;4999509;28;20548;-73
2022/11/27 06:07:15;;;;;;;5.72;2.97;;;;;;;4.74;93.94;102097.59;4985772;28;20042;-73
2022/11/27 06:09:40;;;;;;;8.57;3.40;;;;;;;4.74;94.52;102099.41;4986232;28;20173;-72
2022/11/27 06:12:06;;;;;;;6.78;3.13;;;;;;;4.73;95.34;102103.03;4985117;28;20050;-73
2022/11/27 06:14:33;;;;;;;7.35;3.38;;;;;;;4.72;94.93;102091.38;4985429;28;20468;-73
2022/11/27 06:16:59;;;;;;;12.73;3.50;;;;;;;4.71;95.01;102086.94;4987020;28;20050;-73
2022/11/27 06:19:25;;;;;;;10.80;3.10;;;;;;;4.75;94.50;102098.47;4986398;28;20466;-73
2022/11/27 06:21:50;;;;;;;9.13;3.00;;;;;;;4.75;94.79;102091.28;4986658;28;20221;-73
2022/11/27 06:24:16;;;;;;;7.53;2.90;;;;;;;4.76;94.22;102089.50;4995628;28;20401;-73
2022/11/27 06:26:41;;;;;;;5.15;2.92;;;;;;;4.78;94.34;102084.94;4984904;28;20037;-73
2022/11/27 06:29:08;;;;;;;9.43;2.85;;;;;;;4.78;94.83;102080.41;4996484;28;20402;-73
2022/11/27 06:31:33;;;;;;;8.18;2.78;;;;;;;4.79;94.44;102086.69;4986481;28;20066;-73
2022/11/27 06:33:59;;;;;;;7.93;3.03;;;;;;;4.79;94.52;102086.69;4987035;28;20096;-73
2022/11/27 06:36:30;;;;;;;8.48;2.92;;;;;;;4.78;94.50;102084.94;4992746;28;20455;-73
2022/11/27 06:38:55;;;;;;;9.02;3.60;;;;;;;4.79;94.79;102087.56;4992443;28;20045;-73
2022/11/27 06:41:23;;;;;;;9.82;3.45;;;;;;;4.80;94.91;102083.97;4993054;28;20425;-73
2022/11/27 06:43:49;;;;;;;6.82;3.03;;;;;;;4.78;95.20;102085.81;4993096;28;20054;-73
2022/11/27 06:46:17;;;;;;;8.88;3.30;;;;;;;4.79;95.62;102087.56;4992853;28;20041;-73
2022/11/27 06:48:44;;;;;;;5.35;3.28;;;;;;;4.79;95.60;102084.00;5007360;28;20029;-73
2022/11/27 06:51:13;;;;;;;8.73;3.50;;;;;;;4.79;96.00;102084.00;5008965;28;20563;-74
2022/11/27 06:53:38;;;;;;;9.43;2.63;;;;;;;4.77;96.52;102077.78;5007979;28;20108;-73
2022/11/27 06:56:07;;;;;;;6.88;3.17;;;;;;;4.78;96.79;102068.75;5010426;28;20148;-73
2022/11/27 06:58:33;;;;;;;11.45;3.55;;;;;;;4.75;97.04;102072.41;5010461;28;20044;-74
2022/11/27 07:00:59;;;;;;;9.55;3.58;;;;;;;4.76;97.58;102076.00;5008814;28;20029;-74
2022/11/27 07:03:25;;;;;;;10.95;4.00;;;;;;;4.74;97.75;102067.06;5012084;28;20446;-74
2022/11/27 07:05:51;;;;;;;11.63;3.63;;;;;;;4.73;98.04;102062.63;5008695;28;20143;-75
2022/11/27 07:08:16;;;;;;;9.07;4.10;;;;;;;4.72;98.33;102056.34;5008637;28;20029;-74
2022/11/27 07:10:42;;;;;;;9.82;3.53;;;;;;;4.71;98.58;102054.56;5011442;28;20034;-74
2022/11/27 07:13:07;;;;;;;8.25;3.70;;;;;;;4.72;98.81;102053.66;5009062;28;20111;-74
2022/11/27 07:15:32;;;;;;;8.23;3.13;;;;;;;4.71;98.83;102045.59;5009573;28;20038;-75
2022/11/27 07:17:58;;;;;;;8.18;3.40;;;;;;;4.71;99.13;102040.19;5011457;28;20042;-74
2022/11/27 07:20:23;;;;;;;10.07;3.05;;;;;;;4.69;99.45;102034.84;5008471;28;20033;-74
2022/11/27 07:22:48;;;;;;;11.52;3.40;;;;;;;4.71;99.85;102032.09;5007852;28;20034;-74
2022/11/27 07:25:15;;;;;;;7.60;3.10;;;;;;;4.69;99.87;102026.75;5009656;28;20048;-74
2022/11/27 07:27:41;;;;;;;8.82;3.17;;;;;;;4.67;100.00;102028.63;5007798;28;20030;-74
2022/11/27 07:30:07;;;;;;;12.73;3.70;;;;;;;4.70;99.99;102025.84;5011060;28;20065;-74
2022/11/27 07:32:32;;;;;;;7.38;3.53;;;;;;;4.72;100.00;102033.91;5006530;28;20519;-74
2022/11/27 07:34:57;;;;;;;11.70;4.07;;;;;;;4.71;100.00;102021.31;5008018;28;20058;-74
2022/11/27 07:37:23;;;;;;;8.35;4.25;;;;;;;4.70;100.00;102022.25;4993750;28;20044;-75
2022/11/27 07:39:48;;;;;;;11.73;5.03;;;;;;;4.68;100.00;102014.22;5007610;28;20061;-75
2022/11/27 07:42:14;;;;;;;11.20;6.22;;;;;;;4.70;100.00;102016.88;5009021;28;20041;-74
2022/11/27 07:44:39;;;;;;;13.48;5.22;;;;;;;4.70;100.00;102017.75;5012087;28;20029;-75
2022/11/27 07:47:04;;;;;;;12.77;5.30;;;;;;;4.71;100.00;102015.94;4983308;28;20128;-75
2022/11/27 07:49:30;;;;;;;12.07;6.00;;;;;;;4.70;100.00;102009.66;5004953;28;20030;-75
2022/11/27 07:51:55;;;;;;;10.98;5.25;;;;;;;4.69;100.00;102001.63;5008784;28;20034;-75
2022/11/27 07:54:20;;;;;;;10.15;4.53;;;;;;;4.67;100.00;101993.59;5005150;28;20033;-75
2022/11/27 07:56:46;;;;;;;16.33;5.22;;;;;;;4.68;100.00;101997.19;4989531;28;20117;-75
2022/11/27 07:59:11;;;;;;;10.27;5.30;;;;;;;4.66;100.00;101983.72;4987159;28;20092;-75
2022/11/27 08:01:36;;;;;;;9.43;5.07;;;;;;;4.68;100.00;101973.78;4995625;28;20038;-74
2022/11/27 08:04:02;;;;;;;12.35;4.85;;;;;;;4.65;100.00;101973.88;5004830;28;20030;-75
2022/11/27 08:06:27;;;;;;;8.85;4.50;;;;;;;4.64;100.00;101972.13;4999078;28;20029;-75
2022/11/27 08:08:55;;;;;;;10.18;4.95;;;;;;;4.69;100.00;101971.97;4987538;28;20054;-75
2022/11/27 08:11:26;;;;;;;13.98;5.10;;;;;;;4.71;100.00;101968.31;5005875;28;20044;-74
2022/11/27 08:13:56;;;;;;;12.05;5.25;;;;;;;4.70;100.00;101974.63;5005021;28;20604;-75
2022/11/27 08:16:22;;;;;;;12.30;5.28;;;;;;;4.71;100.00;101972.81;5001017;28;20096;-75
2022/11/27 08:18:47;;;;;;;14.57;5.10;;;;;;;4.73;100.00;101979.94;4971875;28;20050;-75
2022/11/27 08:21:12;;;;;;;10.20;4.95;;;;;;;4.73;100.00;101963.75;4989991;28;20103;-75
2022/11/27 08:23:38;;;;;;;12.88;5.78;;;;;;;4.75;100.00;101969.97;4987379;28;20405;-75
2022/11/27 08:26:08;;;;;;;10.93;5.10;;;;;;;4.78;100.00;101969.88;4988295;28;20113;-74
2022/11/27 08:28:34;;;;;;;13.20;5.40;;;;;;;4.80;100.00;101961.75;5007075;28;20603;-74
2022/11/27 08:31:01;;;;;;;17.30;6.13;;;;;;;4.83;100.00;101969.75;4998232;28;20030;-74
2022/11/27 08:33:27;;;;;;;13.30;5.30;;;;;;;4.85;100.00;101967.91;4971694;28;20498;-74
2022/11/27 08:35:53;;;;;;;17.83;5.65;;;;;;;4.87;100.00;101974.13;5001537;28;20533;-74
2022/11/27 08:38:19;;;;;;;15.55;6.05;;;;;;;4.92;100.00;101972.16;4998719;28;20045;-74
2022/11/27 08:40:44;;;;;;;11.55;5.65;;;;;;;4.95;100.00;101977.47;4986838;28;20050;-74
2022/11/27 08:43:10;;;;;;;9.15;5.50;;;;;;;4.99;100.00;101970.16;4987009;28;20022;-74
2022/11/27 08:45:38;;;;;;;16.55;5.78;;;;;;;4.99;100.00;101968.38;4988329;28;20048;-75
2022/11/27 08:48:04;;;;;;;12.05;5.90;;;;;;;5.03;100.00;101963.72;4998932;28;20038;-75
2022/11/27 08:50:29;;;;;;;11.50;5.90;;;;;;;5.05;100.00;101965.47;5006861;28;20034;-75
2022/11/27 08:52:55;;;;;;;10.88;6.30;;;;;;;5.07;100.00;101963.59;4985830;28;20029;-74
2022/11/27 08:55:21;;;;;;;13.25;6.28;;;;;;;5.10;100.00;101973.41;4970324;28;20314;-74
2022/11/27 08:57:46;;;;;;;12.20;6.63;;;;;;;5.14;100.00;101975.09;4986393;28;20133;-74
2022/11/27 09:00:12;;;;;;;12.43;5.65;;;;;;;5.16;100.00;101973.19;4970355;28;20070;-74
2022/11/27 09:02:37;;;;;;;10.15;5.60;;;;;;;5.23;100.00;101982.00;4988185;28;20035;-74
2022/11/27 09:05:06;;;;;;;13.20;6.20;;;;;;;5.26;100.00;101979.19;4995272;28;20033;-74
2022/11/27 09:07:31;;;;;;;14.48;5.82;;;;;;;5.29;100.00;101985.38;5005338;28;20408;-74
2022/11/27 09:09:57;;;;;;;15.35;6.65;;;;;;;5.33;100.00;101975.38;4987856;28;20045;-74
2022/11/27 09:12:22;;;;;;;11.05;5.68;;;;;;;5.35;100.00;101973.50;5002550;28;20062;-74
2022/11/27 09:14:47;;;;;;;12.73;6.35;;;;;;;5.37;100.00;101972.53;4986864;28;20082;-74
2022/11/27 09:17:13;;;;;;;13.93;5.95;;;;;;;5.39;100.00;101961.66;5001550;28;20096;-74
2022/11/27 09:19:38;;;;;;;13.88;6.40;;;;;;;5.43;100.00;101971.44;4987557;28;20042;-75
2022/11/27 09:22:04;;;;;;;15.40;5.50;;;;;;;5.44;100.00;101967.78;4987376;28;20046;-74
2022/11/27 09:24:29;;;;;;;15.18;6.05;;;;;;;5.47;100.00;101962.31;4987794;28;20041;-74
2022/11/27 09:26:55;;;;;;;16.35;5.82;;;;;;;5.50;100.00;101967.63;4987273;28;20065;-75
2022/11/27 09:29:20;;;;;;;15.52;6.60;;;;;;;5.49;100.00;101960.41;4986482;28;20045;-75
2022/11/27 09:31:45;;;;;;;10.98;6.32;;;;;;;5.53;100.00;101963.91;4987585;28;20375;-74
2022/11/27 09:34:11;;;;;;;22.00;7.32;;;;;;;5.57;100.00;101969.16;4993485;28;20042;-74
2022/11/27 09:36:36;;;;;;;10.82;6.32;;;;;;;5.57;100.00;101969.16;5002878;28;20052;-74
2022/11/27 09:39:02;;;;;;;16.67;6.95;;;;;;;5.59;100.00;101966.41;4993770;28;20093;-75
2022/11/27 09:41:47;;;;;;;13.25;6.28;;;;;;;5.63;100.00;101970.75;4986224;28;20030;-75
2022/11/27 09:44:38;;;;;;;15.43;6.93;;;;;;;5.66;100.00;101972.47;4986757;28;20371;-75
2022/11/27 09:47:13;;;;;;;10.50;6.03;;;;;;;5.67;100.00;101964.31;4987225;28;20030;-75
2022/11/27 09:49:49;;;;;;;18.25;7.55;;;;;;;5.70;100.00;101961.53;4986290;28;20038;-75
2022/11/27 09:52:24;;;;;;;17.10;7.60;;;;;;;5.71;100.00;101957.00;4987580;28;20042;-75
2022/11/27 09:55:14;;;;;;;12.40;6.60;;;;;;;5.74;100.00;101954.22;5000373;28;20046;-75
2022/11/27 09:57:42;;;;;;;15.85;6.63;;;;;;;5.77;100.00;101946.00;4993413;28;20049;-74
2022/11/27 10:00:17;;;;;;;21.25;7.25;;;;;;;5.78;100.00;101939.66;4986145;28;20049;-75
2022/11/27 10:02:43;;;;;;;12.05;6.57;;;;;;;5.81;100.00;101937.72;4987237;28;20045;-75
2022/11/27 10:05:16;;;;;;;16.60;7.88;;;;;;;5.86;100.00;101940.25;4992199;28;20073;-75
2022/11/27 10:08:09;;;;;;;13.02;6.22;;;;;;;5.89;100.00;101937.47;4985807;28;20043;-75
2022/11/27 10:10:43;;;;;;;13.48;6.50;;;;;;;5.88;100.00;101920.38;4986253;28;20046;-75
2022/11/27 10:13:15;;;;;;;13.82;7.07;;;;;;;5.94;100.00;101916.63;4987294;28;20054;-75
2022/11/27 10:15:54;;;;;;;18.60;7.25;;;;;;;5.98;100.00;101923.66;4989309;28;20404;-75
2022/11/27 10:18:39;;;;;;;13.70;6.32;;;;;;;5.99;100.00;101920.03;4985812;28;20058;-75
2022/11/27 10:21:41;;;;;;;15.70;7.45;;;;;;;6.05;100.00;101910.81;4985441;28;20070;-75
2022/11/27 10:24:40;;;;;;;11.50;6.72;;;;;;;6.08;100.00;101902.59;5000020;28;20061;-75
2022/11/27 10:27:19;;;;;;;17.20;7.35;;;;;;;6.10;100.00;101895.31;4986076;28;20057;-75
2022/11/27 10:29:52;;;;;;;12.13;6.43;;;;;;;6.12;100.00;101894.34;4999169;28;20041;-75
2022/11/27 10:32:25;;;;;;;13.57;7.20;;;;;;;6.17;100.00;101896.88;4984791;28;20027;-75
2022/11/27 10:34:55;;;;;;;15.35;7.53;;;;;;;6.21;100.00;101893.13;4990072;28;20922;-75
2022/11/27 10:38:05;;;;;;;14.57;6.82;;;;;;;6.27;100.00;101887.47;4985582;28;20038;-75
2022/11/27 10:40:38;;;;;;;14.50;7.28;;;;;;;6.30;100.00;101884.66;5003267;28;20136;-75
2022/11/27 10:43:11;;;;;;;20.77;7.18;;;;;;;6.32;100.00;101879.19;5004304;28;20107;-74
2022/11/27 10:45:51;;;;;;;;;;;;;;;6.36;100.00;101875.44;4996088;28;20046;-75
2022/11/27 10:48:17;;;;;;;11.13;6.47;;;;;;;6.37;100.00;101869.06;4999046;28;20016;-74
2022/11/27 10:50:44;;;;;;;10.88;6.10;;;;;;;6.37;100.00;101875.34;4986853;28;20597;-74
2022/11/27 10:53:13;;;;;;;13.65;6.57;;;;;;;6.40;100.00;101866.28;4986136;28;20068;-74
2022/11/27 10:55:39;;;;;;;14.38;8.15;;;;;;;6.41;100.00;101867.16;4985249;28;20038;-74
2022/11/27 10:58:44;;;;;;;16.65;7.10;;;;;;;6.42;100.00;101856.25;4985716;28;20050;-74
2022/11/27 11:01:16;;;;;;;20.58;8.13;;;;;;;6.39;100.00;101851.88;4986611;28;20129;-74
2022/11/27 11:03:42;;;;;;;12.70;6.85;;;;;;;6.43;100.00;101855.31;4986937;28;20124;-74
2022/11/27 11:06:29;;;;;;;12.77;6.20;;;;;;;6.45;100.00;101857.97;4985435;28;20038;-75
2022/11/27 11:09:04;;;;;;;13.73;7.53;;;;;;;6.44;99.72;101848.13;4984322;28;20405;-74
2022/11/27 11:11:30;;;;;;;12.63;7.15;;;;;;;6.44;99.60;101846.28;4985523;28;20117;-74
2022/11/27 11:13:55;;;;;;;14.15;6.30;;;;;;;6.46;100.00;101838.13;5002426;28;20137;-75
2022/11/27 11:16:24;;;;;;;13.77;6.72;;;;;;;6.44;99.61;101832.78;4993558;28;20403;-74
2022/11/27 11:18:52;;;;;;;14.10;6.18;;;;;;;6.47;99.14;101829.06;4986472;28;20042;-74
2022/11/27 11:21:27;;;;;;;16.23;6.95;;;;;;;6.48;99.71;101830.81;4986248;28;20034;-74
2022/11/27 11:24:02;;;;;;;11.57;6.15;;;;;;;6.48;99.18;101817.28;4978671;28;20049;-74
2022/11/27 11:26:32;;;;;;;14.25;6.65;;;;;;;6.49;99.17;101817.25;4990275;28;20339;-74
2022/11/27 11:29:01;;;;;;;13.52;6.43;;;;;;;6.51;98.60;101815.34;4989034;28;20054;-75
2022/11/27 11:31:33;;;;;;;12.48;5.68;;;;;;;6.50;98.67;101810.91;4973896;28;20124;-74